Time;durP1;ratioP1;P1;durP2;ratioP2;P2;SDS_P1;SDS_P2;PMS_P1;PMS_P2;Temp;Humidity;BMP_temperature;BMP_pressure;BME280_temperature;BME280_humidity;BME280_pressure;Samples;Min_cycle;Max_cycle;Signal;HPM_P1;HPM_P2
2023/03/14 00:02:19;;;;;;;4.88;3.17;;;;;;;-144.57;100.00;62443.72;5011238;28;20046;-65
2023/03/14 00:04:45;;;;;;;4.85;3.15;;;;;;;-144.57;100.00;62443.72;4993237;28;20042;-63
2023/03/14 00:07:11;;;;;;;4.43;2.50;;;;;;;-144.57;100.00;62443.72;5010680;28;20042;-64
2023/03/14 00:09:37;;;;;;;4.47;3.08;;;;;;;-144.57;100.00;62443.72;4993197;28;20103;-62
2023/03/14 00:12:03;;;;;;;4.85;3.00;;;;;;;-144.57;100.00;62443.72;5010525;28;20140;-63
2023/03/14 00:14:30;;;;;;;5.38;2.95;;;;;;;-144.57;100.00;62443.72;5011009;28;20115;-63
2023/03/14 00:16:56;;;;;;;4.07;2.45;;;;;;;-144.57;100.00;62443.72;5010429;28;20042;-63
2023/03/14 00:19:22;;;;;;;4.75;2.67;;;;;;;-144.57;100.00;62443.72;5010478;28;20180;-62
2023/03/14 00:21:47;;;;;;;6.05;2.88;;;;;;;-144.57;100.00;62443.72;5010524;28;20415;-62
2023/03/14 00:24:13;;;;;;;4.88;2.83;;;;;;;-144.57;100.00;62443.72;5010638;28;20057;-62
2023/03/14 00:26:39;;;;;;;6.13;2.60;;;;;;;-144.57;100.00;62443.72;5010894;28;20450;-61
2023/03/14 00:29:06;;;;;;;4.30;2.72;;;;;;;-144.57;100.00;62443.72;4994959;28;20053;-62
2023/03/14 00:31:32;;;;;;;5.70;2.75;;;;;;;-144.57;100.00;62443.72;5014330;28;20113;-61
2023/03/14 00:33:58;;;;;;;5.32;2.50;;;;;;;-144.57;100.00;62443.72;5012549;28;20046;-63
2023/03/14 00:36:24;;;;;;;6.82;2.80;;;;;;;-144.57;100.00;62443.72;4996296;28;20042;-64
2023/03/14 00:38:51;;;;;;;3.53;2.60;;;;;;;-144.57;100.00;62443.72;5013734;28;20522;-64
2023/03/14 00:41:25;;;;;;;4.75;2.90;;;;;;;-144.57;100.00;62443.72;5012581;28;20033;-63
2023/03/14 00:43:51;;;;;;;3.35;2.53;;;;;;;-144.57;100.00;62443.72;5019510;28;20069;-66
2023/03/14 00:46:17;;;;;;;3.30;2.45;;;;;;;-144.57;100.00;62443.72;5033835;28;20380;-62
2023/03/14 00:48:45;;;;;;;7.18;2.67;;;;;;;-144.57;100.00;62443.72;5015953;28;20132;-62
2023/03/14 00:51:11;;;;;;;3.70;2.50;;;;;;;-144.57;100.00;62443.72;5015811;28;20140;-62
2023/03/14 00:53:38;;;;;;;4.40;2.70;;;;;;;-144.57;100.00;62443.72;5033262;28;20499;-62
2023/03/14 00:56:06;;;;;;;4.97;2.95;;;;;;;-144.57;100.00;62443.72;5000558;28;20058;-62
2023/03/14 00:58:31;;;;;;;4.00;2.60;;;;;;;-144.57;100.00;62443.72;5013457;28;20057;-61
2023/03/14 01:00:57;;;;;;;5.40;2.80;;;;;;;-144.57;100.00;62443.72;5012170;28;20099;-62
2023/03/14 01:03:24;;;;;;;3.70;2.72;;;;;;;-144.57;100.00;62443.72;5012096;28;20060;-64
2023/03/14 01:05:50;;;;;;;4.82;2.78;;;;;;;-144.57;100.00;62443.72;5013609;28;20034;-63
2023/03/14 01:08:16;;;;;;;4.80;2.72;;;;;;;-144.57;100.00;62443.72;5013238;28;20161;-62
2023/03/14 01:10:42;;;;;;;4.50;3.30;;;;;;;-144.57;100.00;62443.72;5012893;28;20050;-63
2023/03/14 01:13:08;;;;;;;5.20;2.78;;;;;;;-144.57;100.00;62443.72;5013165;28;20069;-62
2023/03/14 01:15:36;;;;;;;4.05;2.75;;;;;;;-144.57;100.00;62443.72;4996036;28;20329;-63
2023/03/14 01:18:02;;;;;;;5.97;2.95;;;;;;;-144.57;100.00;62443.72;5013080;28;20454;-63
2023/03/14 01:20:28;;;;;;;4.40;3.10;;;;;;;-144.57;100.00;62443.72;5012022;28;20052;-61
2023/03/14 01:22:53;;;;;;;5.00;3.38;;;;;;;-144.57;100.00;62443.72;5011617;28;20041;-63
2023/03/14 01:25:20;;;;;;;5.47;2.97;;;;;;;-144.57;100.00;62443.72;5011662;28;20046;-62
2023/03/14 01:27:46;;;;;;;6.25;3.45;;;;;;;-144.57;100.00;62443.72;5011949;28;20053;-63
2023/03/14 01:30:13;;;;;;;8.55;3.63;;;;;;;-144.57;100.00;62443.72;5011597;28;20037;-64
2023/03/14 01:32:39;;;;;;;9.38;3.47;;;;;;;-144.57;100.00;62443.72;5012805;28;20064;-63
2023/03/14 01:35:05;;;;;;;6.82;3.90;;;;;;;-144.57;100.00;62443.72;4995188;28;20042;-63
2023/03/14 01:37:32;;;;;;;7.43;3.53;;;;;;;-144.57;100.00;62443.72;5012981;28;20054;-63
2023/03/14 01:39:58;;;;;;;5.40;3.53;;;;;;;-144.57;100.00;62443.72;5012041;28;20080;-65
2023/03/14 01:42:23;;;;;;;8.63;3.70;;;;;;;-144.57;100.00;62443.72;5012684;28;20085;-64
2023/03/14 01:44:58;;;;;;;4.82;3.30;;;;;;;-144.57;100.00;62443.72;5011350;28;20116;-64
2023/03/14 01:47:23;;;;;;;6.13;3.95;;;;;;;-144.57;100.00;62443.72;5011380;28;20052;-65
2023/03/14 01:50:05;;;;;;;6.15;3.95;;;;;;;-144.57;100.00;62443.72;5011165;28;20041;-64
2023/03/14 01:52:41;;;;;;;7.85;3.83;;;;;;;-144.57;100.00;62443.72;5011565;28;20050;-63
2023/03/14 01:55:17;;;;;;;6.53;3.80;;;;;;;-144.57;100.00;62443.72;4982122;28;20054;-65
2023/03/14 01:57:46;;;;;;;5.72;3.60;;;;;;;-144.57;100.00;62443.72;4956434;28;20505;-65
2023/03/14 02:00:14;;;;;;;5.88;3.88;;;;;;;-144.57;100.00;62443.72;4956337;28;20117;-64
2023/03/14 02:02:44;;;;;;;8.00;4.50;;;;;;;-144.57;100.00;62443.72;4972432;28;20086;-63
2023/03/14 02:05:14;;;;;;;6.07;3.90;;;;;;;-144.57;100.00;62443.72;4956159;28;20053;-63
2023/03/14 02:07:44;;;;;;;;;;;;;;;-144.57;100.00;62443.72;4972598;28;20047;-62
2023/03/14 02:10:18;;;;;;;5.55;4.22;;;;;;;-144.57;100.00;62443.72;4970521;28;20024;-65
2023/03/14 02:12:46;;;;;;;7.38;4.05;;;;;;;-144.57;100.00;62443.72;4972194;28;20042;-65
2023/03/14 02:15:25;;;;;;;7.32;4.65;;;;;;;-144.57;100.00;62443.72;4974102;28;20134;-64
2023/03/14 02:18:06;;;;;;;7.10;4.45;;;;;;;-144.57;100.00;62443.72;4972090;28;20055;-63
2023/03/14 02:20:59;;;;;;;8.18;4.65;;;;;;;-144.57;100.00;62443.72;4972374;28;20062;-64
2023/03/14 02:23:32;;;;;;;9.35;5.32;;;;;;;-144.57;100.00;62443.72;4971402;28;20050;-64
2023/03/14 02:26:05;;;;;;;9.75;4.55;;;;;;;-144.57;100.00;62443.72;4971744;28;20034;-63
2023/03/14 02:28:31;;;;;;;7.90;4.80;;;;;;;-144.57;100.00;62443.72;4955891;28;20051;-65
2023/03/14 02:31:00;;;;;;;7.43;4.80;;;;;;;-144.57;100.00;62443.72;4955590;28;20067;-64
2023/03/14 02:33:26;;;;;;;9.48;4.95;;;;;;;-144.57;100.00;62443.72;4973062;28;20051;-64
2023/03/14 02:35:59;;;;;;;8.88;4.35;;;;;;;-144.57;100.00;62443.72;4955827;28;20039;-65
2023/03/14 02:38:47;;;;;;;7.57;4.70;;;;;;;-144.57;100.00;62443.72;4988021;28;20177;-65
2023/03/14 02:41:14;;;;;;;10.52;5.28;;;;;;;-144.57;100.00;62443.72;4972079;28;20501;-62
2023/03/14 02:43:46;;;;;;;7.93;5.40;;;;;;;-144.57;100.00;62443.72;4971647;28;20058;-64
2023/03/14 02:46:16;;;;;;;7.93;5.22;;;;;;;-144.57;100.00;62443.72;4971866;28;20039;-62
2023/03/14 02:48:52;;;;;;;9.30;5.30;;;;;;;-144.57;100.00;62443.72;4971625;28;20101;-62
2023/03/14 02:51:18;;;;;;;8.13;5.05;;;;;;;-144.57;100.00;62443.72;4972350;28;20130;-64
2023/03/14 02:53:46;;;;;;;8.40;5.13;;;;;;;-144.57;100.00;62443.72;4971519;28;20057;-64
2023/03/14 02:56:12;;;;;;;7.40;5.13;;;;;;;-144.57;100.00;62443.72;4989942;28;20112;-63
2023/03/14 02:58:38;;;;;;;10.40;5.65;;;;;;;-144.57;100.00;62443.72;4989925;28;20054;-63
2023/03/14 03:01:25;;;;;;;7.28;4.90;;;;;;;-144.57;100.00;62443.72;5007271;28;20046;-61
2023/03/14 03:03:50;;;;;;;8.73;5.25;;;;;;;-144.57;100.00;62443.72;4990728;28;20078;-63
2023/03/14 03:06:18;;;;;;;9.15;6.00;;;;;;;-144.57;100.00;62443.72;4992475;28;20043;-62
2023/03/14 03:08:44;;;;;;;6.82;4.75;;;;;;;-144.57;100.00;62443.72;5007125;28;20466;-61
2023/03/14 03:11:10;;;;;;;6.72;5.07;;;;;;;-144.57;100.00;62443.72;5007181;28;20535;-62
2023/03/14 03:13:36;;;;;;;8.13;5.28;;;;;;;-144.57;100.00;62443.72;4990545;28;20042;-62
2023/03/14 03:16:04;;;;;;;11.95;5.40;;;;;;;-144.57;100.00;62443.72;4990906;28;20089;-62
2023/03/14 03:18:29;;;;;;;7.93;4.88;;;;;;;-144.57;100.00;62443.72;4990672;28;20042;-63
2023/03/14 03:20:59;;;;;;;7.40;4.90;;;;;;;-144.57;100.00;62443.72;4992269;28;20449;-64
2023/03/14 03:23:25;;;;;;;7.38;4.70;;;;;;;-144.57;100.00;62443.72;5006902;28;20054;-63
2023/03/14 03:25:51;;;;;;;8.93;5.25;;;;;;;-144.57;100.00;62443.72;4992135;28;20511;-62
2023/03/14 03:28:18;;;;;;;10.95;5.38;;;;;;;-144.57;100.00;62443.72;4990597;28;20065;-62
2023/03/14 03:30:44;;;;;;;6.20;4.85;;;;;;;-144.57;100.00;62443.72;4990649;28;20104;-63
2023/03/14 03:33:11;;;;;;;9.07;5.80;;;;;;;-144.57;100.00;62443.72;5006733;28;20427;-62
2023/03/14 03:35:48;;;;;;;6.10;4.97;;;;;;;-144.57;100.00;62443.72;5007152;28;20463;-63
2023/03/14 03:38:16;;;;;;;8.43;4.80;;;;;;;-144.57;100.00;62443.72;5006758;28;20046;-61
2023/03/14 03:40:44;;;;;;;7.18;4.97;;;;;;;-144.57;100.00;62443.72;5007028;28;20093;-63
2023/03/14 03:43:10;;;;;;;12.15;5.20;;;;;;;-144.57;100.00;62443.72;4990175;28;20046;-62
2023/03/14 03:45:38;;;;;;;7.88;5.10;;;;;;;-144.57;100.00;62443.72;5006739;28;20527;-62
2023/03/14 03:48:05;;;;;;;10.15;5.65;;;;;;;-144.57;100.00;62443.72;4990204;28;20046;-64
2023/03/14 03:50:31;;;;;;;10.50;5.32;;;;;;;-144.57;100.00;62443.72;5006629;28;20069;-62
2023/03/14 03:52:57;;;;;;;6.72;5.20;;;;;;;-144.57;100.00;62443.72;5006397;28;20520;-62
2023/03/14 03:55:22;;;;;;;6.28;4.90;;;;;;;-144.57;100.00;62443.72;4994966;28;20536;-62
2023/03/14 03:57:48;;;;;;;9.25;5.72;;;;;;;-144.57;100.00;62443.72;4986983;28;20038;-60
2023/03/14 04:00:14;;;;;;;8.60;5.18;;;;;;;-144.57;100.00;62443.72;4970962;28;21099;-61
2023/03/14 04:02:40;;;;;;;9.45;5.65;;;;;;;-144.57;100.00;62443.72;4972195;28;20069;-60
2023/03/14 04:05:09;;;;;;;8.07;5.40;;;;;;;-144.57;100.00;62443.72;4974741;28;20055;-61
2023/03/14 04:07:38;;;;;;;8.70;5.67;;;;;;;-144.57;100.00;62443.72;4974891;28;20055;-59
2023/03/14 04:10:05;;;;;;;8.02;5.40;;;;;;;-144.57;100.00;62443.72;4958333;28;20133;-61
2023/03/14 04:12:39;;;;;;;7.97;5.40;;;;;;;-144.57;100.00;62443.72;4974371;28;20428;-61
2023/03/14 04:15:09;;;;;;;7.32;5.78;;;;;;;-144.57;100.00;62443.72;4974226;28;20050;-65
2023/03/14 04:17:36;;;;;;;9.95;5.78;;;;;;;-144.57;100.00;62443.72;4974881;28;20452;-64
2023/03/14 04:20:03;;;;;;;9.02;5.88;;;;;;;-144.57;100.00;62443.72;4975281;28;20046;-63
2023/03/14 04:22:34;;;;;;;8.95;5.65;;;;;;;-144.57;100.00;62443.72;4974753;28;20042;-64
2023/03/14 04:25:02;;;;;;;10.30;5.57;;;;;;;-144.57;100.00;62443.72;4973856;28;20437;-62
2023/03/14 04:27:30;;;;;;;9.32;5.68;;;;;;;-144.57;100.00;62443.72;4975269;28;20133;-64
2023/03/14 04:29:57;;;;;;;9.10;5.88;;;;;;;-144.57;100.00;62443.72;4973895;28;20053;-64
2023/03/14 04:32:40;;;;;;;10.80;6.15;;;;;;;-144.57;100.00;62443.72;4973964;28;20051;-64
2023/03/14 04:35:06;;;;;;;12.00;5.95;;;;;;;-144.57;100.00;62443.72;4975042;28;20105;-65
2023/03/14 04:37:32;;;;;;;11.90;5.97;;;;;;;-144.57;100.00;62443.72;4989991;28;20047;-65
2023/03/14 04:39:58;;;;;;;9.70;6.00;;;;;;;-144.57;100.00;62443.72;4973743;28;20551;-64
2023/03/14 04:42:26;;;;;;;11.68;5.70;;;;;;;-144.57;100.00;62443.72;4989969;28;20468;-62
2023/03/14 04:44:51;;;;;;;7.40;5.72;;;;;;;-144.57;100.00;62443.72;4957798;28;20038;-61
2023/03/14 04:47:21;;;;;;;8.55;5.93;;;;;;;-144.57;100.00;62443.72;4973680;28;20093;-62
2023/03/14 04:49:49;;;;;;;11.02;6.32;;;;;;;-144.57;100.00;62443.72;4973856;28;20042;-62
2023/03/14 04:52:15;;;;;;;7.63;5.25;;;;;;;-144.57;100.00;62443.72;4973478;28;20053;-60
2023/03/14 04:54:41;;;;;;;9.13;6.07;;;;;;;-144.57;100.00;62443.72;4975521;28;20070;-61
2023/03/14 04:57:07;;;;;;;14.43;6.72;;;;;;;-144.57;100.00;62443.72;4989823;28;20043;-62
2023/03/14 04:59:35;;;;;;;8.30;5.75;;;;;;;-144.57;100.00;62443.72;4989516;28;20039;-68
2023/03/14 05:02:16;;;;;;;9.73;6.40;;;;;;;-144.57;100.00;62443.72;4989506;28;20086;-63
2023/03/14 05:04:59;;;;;;;13.50;6.10;;;;;;;-144.57;100.00;62443.72;4989459;28;20049;-61
2023/03/14 05:07:46;;;;;;;10.45;6.25;;;;;;;-144.57;100.00;62443.72;4967168;28;20062;-61
2023/03/14 05:10:34;;;;;;;8.65;5.78;;;;;;;-144.57;100.00;62443.72;4974954;28;20039;-61
2023/03/14 05:13:23;;;;;;;8.68;5.72;;;;;;;-144.57;100.00;62443.72;4949135;28;20062;-61
2023/03/14 05:16:24;;;;;;;9.70;5.60;;;;;;;-144.57;100.00;62443.72;4962138;28;20042;-61
2023/03/14 05:19:28;;;;;;;7.47;5.18;;;;;;;-144.57;100.00;62443.72;4924111;29;20056;-63
2023/03/14 05:22:13;;;;;;;10.13;5.32;;;;;;;-144.57;100.00;62443.72;4910560;29;20096;-61
2023/03/14 05:25:08;;;;;;;9.48;6.22;;;;;;;-144.57;100.00;62443.72;4937387;28;20059;-62
2023/03/14 05:28:00;;;;;;;9.85;5.88;;;;;;;-144.57;100.00;62443.72;4961214;28;20402;-61
2023/03/14 05:30:55;;;;;;;11.55;6.03;;;;;;;-144.57;100.00;62443.72;4953179;28;20063;-62
2023/03/14 05:33:46;;;;;;;10.50;5.72;;;;;;;-144.57;100.00;62443.72;4959392;28;20129;-62
2023/03/14 05:36:38;;;;;;;11.32;5.95;;;;;;;-144.57;100.00;62443.72;4975082;28;20055;-62
2023/03/14 05:39:26;;;;;;;9.73;5.75;;;;;;;-144.57;100.00;62443.72;4961868;28;20122;-62
2023/03/14 05:42:03;;;;;;;9.23;5.35;;;;;;;-144.57;100.00;62443.72;4978919;28;20071;-62
2023/03/14 05:44:43;;;;;;;12.60;6.00;;;;;;;-144.57;100.00;62443.72;4960583;28;20058;-62
2023/03/14 05:47:31;;;;;;;9.65;5.63;;;;;;;-144.57;100.00;62443.72;4969600;28;20073;-61
2023/03/14 05:50:26;;;;;;;9.25;4.63;;;;;;;-144.57;100.00;62443.72;4979600;28;20381;-61
2023/03/14 05:53:20;;;;;;;8.48;4.97;;;;;;;-144.57;100.00;62443.72;4932737;28;20068;-61
2023/03/14 05:56:05;;;;;;;8.15;5.25;;;;;;;-144.57;100.00;62443.72;4999854;28;20060;-60
2023/03/14 05:58:38;;;;;;;8.20;4.90;;;;;;;-144.57;100.00;62443.72;5007452;28;20049;-63
2023/03/14 06:01:05;;;;;;;6.43;4.65;;;;;;;-144.57;100.00;62443.72;5009498;28;20029;-62
2023/03/14 06:03:45;;;;;;;10.93;5.22;;;;;;;-144.57;100.00;62443.72;4993341;28;20045;-62
2023/03/14 06:06:11;;;;;;;7.93;4.88;;;;;;;-144.57;100.00;62443.72;4977258;28;20099;-61
2023/03/14 06:08:37;;;;;;;7.78;5.10;;;;;;;-144.57;100.00;62443.72;4991438;28;20512;-62
2023/03/14 06:11:04;;;;;;;7.97;4.85;;;;;;;-144.57;100.00;62443.72;4990865;28;20046;-62
2023/03/14 06:13:30;;;;;;;6.45;4.72;;;;;;;-144.57;100.00;62443.72;5008614;28;20038;-61
2023/03/14 06:15:56;;;;;;;7.50;4.63;;;;;;;-144.57;100.00;62443.72;4989377;28;20411;-61
2023/03/14 06:18:21;;;;;;;8.80;4.65;;;;;;;-144.57;100.00;62443.72;5006039;28;20080;-61
2023/03/14 06:20:47;;;;;;;8.25;4.68;;;;;;;-144.57;100.00;62443.72;5003994;28;20048;-63
2023/03/14 06:23:21;;;;;;;7.47;4.55;;;;;;;-144.57;100.00;62443.72;5006962;28;20038;-60
2023/03/14 06:25:47;;;;;;;7.45;4.93;;;;;;;-144.57;100.00;62443.72;4973737;28;20504;-61
2023/03/14 06:28:13;;;;;;;6.97;4.28;;;;;;;-144.57;100.00;62443.72;5003524;28;20038;-62
2023/03/14 06:30:38;;;;;;;7.47;4.60;;;;;;;-144.57;100.00;62443.72;4987880;28;20057;-63
2023/03/14 06:33:05;;;;;;;8.95;4.50;;;;;;;-144.57;100.00;62443.72;4972271;28;20056;-63
2023/03/14 06:35:31;;;;;;;10.00;4.40;;;;;;;-144.57;100.00;62443.72;4986164;28;20037;-63
2023/03/14 06:37:56;;;;;;;8.10;4.50;;;;;;;-144.57;100.00;62443.72;4988977;28;20057;-63
2023/03/14 06:40:22;;;;;;;7.32;4.15;;;;;;;-144.57;100.00;62443.72;4988641;28;20519;-62
2023/03/14 06:42:56;;;;;;;9.85;4.68;;;;;;;-144.57;100.00;62443.72;4990113;28;20057;-63
2023/03/14 06:45:23;;;;;;;10.85;5.05;;;;;;;-144.57;100.00;62443.72;5001805;28;20053;-62
2023/03/14 06:47:49;;;;;;;10.20;4.57;;;;;;;-144.57;100.00;62443.72;5009684;28;20091;-62
2023/03/14 06:50:18;;;;;;;9.00;4.30;;;;;;;-144.57;100.00;62443.72;5010892;28;20052;-61
2023/03/14 06:52:47;;;;;;;6.63;4.25;;;;;;;-144.57;100.00;62443.72;5011779;28;20506;-63
2023/03/14 06:55:16;;;;;;;5.90;4.15;;;;;;;-144.57;100.00;62443.72;5003674;28;20062;-63
2023/03/14 06:57:43;;;;;;;9.68;5.25;;;;;;;-144.57;100.00;62443.72;4991758;28;20431;-61
2023/03/14 07:00:11;;;;;;;7.38;4.85;;;;;;;-144.57;100.00;62443.72;4991840;28;20099;-62
2023/03/14 07:02:37;;;;;;;14.65;4.70;;;;;;;-144.57;100.00;62443.72;4993014;28;20276;-63
2023/03/14 07:05:05;;;;;;;6.43;4.57;;;;;;;-144.57;100.00;62443.72;5006698;28;20119;-64
2023/03/14 07:07:31;;;;;;;9.38;4.63;;;;;;;-144.57;100.00;62443.72;4990648;28;20041;-62
2023/03/14 07:09:57;;;;;;;10.68;5.07;;;;;;;-144.57;100.00;62443.72;4990100;28;20053;-63
2023/03/14 07:12:22;;;;;;;8.77;5.13;;;;;;;-144.57;100.00;62443.72;5005686;28;20053;-65
2023/03/14 07:14:48;;;;;;;6.15;4.10;;;;;;;-144.57;100.00;62443.72;5008161;28;20046;-63
2023/03/14 07:17:14;;;;;;;7.22;4.45;;;;;;;-144.57;100.00;62443.72;5007645;28;20057;-63
2023/03/14 07:19:41;;;;;;;10.50;4.47;;;;;;;-144.57;100.00;62443.72;4975153;28;20517;-62
2023/03/14 07:22:08;;;;;;;8.45;4.07;;;;;;;-144.57;100.00;62443.72;5008871;28;20430;-64
2023/03/14 07:24:33;;;;;;;8.75;4.45;;;;;;;-144.57;100.00;62443.72;5009281;28;20061;-65
2023/03/14 07:27:00;;;;;;;6.47;4.25;;;;;;;-144.57;100.00;62443.72;4997418;28;20061;-65
2023/03/14 07:29:25;;;;;;;9.65;4.40;;;;;;;-144.57;100.00;62443.72;4991820;28;20038;-64
2023/03/14 07:31:52;;;;;;;7.10;4.07;;;;;;;-144.57;100.00;62443.72;4989326;28;20053;-61
2023/03/14 07:34:19;;;;;;;9.68;4.30;;;;;;;-144.57;100.00;62443.72;4968279;28;20046;-64
2023/03/14 07:36:45;;;;;;;9.43;4.50;;;;;;;-144.57;100.00;62443.72;4973853;28;20073;-63
2023/03/14 07:39:10;;;;;;;6.70;4.57;;;;;;;-144.57;100.00;62443.72;4977890;28;20050;-63
2023/03/14 07:41:43;;;;;;;10.75;4.47;;;;;;;-144.57;100.00;62443.72;4996332;28;20141;-63
2023/03/14 07:44:21;;;;;;;5.97;3.80;;;;;;;-144.57;100.00;62443.72;5012235;28;20054;-64
2023/03/14 07:46:46;;;;;;;7.07;4.45;;;;;;;-144.57;100.00;62443.72;5010515;28;20104;-63
2023/03/14 07:49:12;;;;;;;8.32;4.70;;;;;;;-144.57;100.00;62443.72;5012227;28;20100;-63
2023/03/14 07:51:38;;;;;;;7.95;4.32;;;;;;;-144.57;100.00;62443.72;5012977;28;20447;-65
2023/03/14 07:54:04;;;;;;;7.55;4.38;;;;;;;-144.57;100.00;62443.72;5007264;28;20077;-63
2023/03/14 07:56:29;;;;;;;7.70;4.57;;;;;;;-144.57;100.00;62443.72;5001798;28;20054;-63
2023/03/14 07:58:56;;;;;;;6.88;4.20;;;;;;;-144.57;100.00;62443.72;4994154;28;20042;-63
2023/03/14 08:01:22;;;;;;;6.57;4.18;;;;;;;-144.57;100.00;62443.72;4995169;28;20080;-65
2023/03/14 08:03:48;;;;;;;6.78;3.80;;;;;;;-144.57;100.00;62443.72;4993696;28;20133;-66
2023/03/14 08:06:14;;;;;;;12.30;4.38;;;;;;;-144.57;100.00;62443.72;5012035;28;20473;-63
2023/03/14 08:08:40;;;;;;;8.80;4.10;;;;;;;-144.57;100.00;62443.72;5009594;28;20048;-64
2023/03/14 08:11:08;;;;;;;5.43;4.10;;;;;;;-144.57;100.00;62443.72;5011201;28;20045;-63
2023/03/14 08:13:35;;;;;;;8.55;4.00;;;;;;;-144.57;100.00;62443.72;5005065;28;20104;-62
2023/03/14 08:16:00;;;;;;;6.18;4.03;;;;;;;-144.57;100.00;62443.72;4991162;28;20092;-66
2023/03/14 08:18:26;;;;;;;6.05;4.53;;;;;;;-144.57;100.00;62443.72;4993453;28;20045;-68
2023/03/14 08:20:52;;;;;;;7.65;4.40;;;;;;;-144.57;100.00;62443.72;4994909;28;20046;-67
2023/03/14 08:23:18;;;;;;;7.05;4.28;;;;;;;-144.57;100.00;62443.72;5012174;28;20065;-63
2023/03/14 08:25:43;;;;;;;6.50;4.22;;;;;;;-144.57;100.00;62443.72;5009459;28;20525;-67
2023/03/14 08:28:09;;;;;;;7.30;4.03;;;;;;;-144.57;100.00;62443.72;5010423;28;20088;-65
2023/03/14 08:30:35;;;;;;;6.07;4.13;;;;;;;-144.57;100.00;62443.72;5012013;28;20503;-65
2023/03/14 08:33:01;;;;;;;7.80;4.20;;;;;;;-144.57;100.00;62443.72;4976000;28;20050;-62
2023/03/14 08:35:27;;;;;;;8.93;4.38;;;;;;;-144.57;100.00;62443.72;4991584;28;20038;-64
2023/03/14 08:37:53;;;;;;;6.68;4.28;;;;;;;-144.57;100.00;62443.72;5005484;28;20538;-63
2023/03/14 08:40:19;;;;;;;11.93;4.35;;;;;;;-144.57;100.00;62443.72;5009346;28;20074;-63
2023/03/14 08:42:45;;;;;;;10.15;5.57;;;;;;;-144.57;100.00;62443.72;5012245;28;20049;-64
2023/03/14 08:45:16;;;;;;;6.00;3.83;;;;;;;-144.57;100.00;62443.72;5011808;28;20404;-66
2023/03/14 08:47:42;;;;;;;8.27;4.25;;;;;;;-144.57;100.00;62443.72;4992415;28;20046;-64
2023/03/14 08:50:09;;;;;;;8.85;4.70;;;;;;;-144.57;100.00;62443.72;5010452;28;20471;-66
2023/03/14 08:52:35;;;;;;;6.22;4.00;;;;;;;-144.57;100.00;62443.72;5011677;28;20061;-63
2023/03/14 08:55:00;;;;;;;6.28;4.60;;;;;;;-144.57;100.00;62443.72;5007585;28;20073;-67
2023/03/14 08:57:27;;;;;;;8.35;3.92;;;;;;;-144.57;100.00;62443.72;5008193;28;20049;-63
2023/03/14 08:59:56;;;;;;;7.13;4.10;;;;;;;-144.57;100.00;62443.72;4989982;28;20103;-63
2023/03/14 09:02:23;;;;;;;5.22;4.07;;;;;;;-144.57;100.00;62443.72;5010444;28;20145;-63
2023/03/14 09:04:52;;;;;;;8.95;4.70;;;;;;;-144.57;100.00;62443.72;5010014;28;20041;-64
2023/03/14 09:07:18;;;;;;;6.28;4.05;;;;;;;-144.57;100.00;62443.72;5006693;28;20485;-62
2023/03/14 09:09:45;;;;;;;7.97;4.40;;;;;;;-144.57;100.00;62443.72;5005665;28;20041;-61
2023/03/14 09:12:11;;;;;;;10.85;4.25;;;;;;;-144.57;100.00;62443.72;5017057;28;20060;-63
2023/03/14 09:14:36;;;;;;;8.90;4.72;;;;;;;-144.57;100.00;62443.72;5008081;28;20168;-62
2023/03/14 09:17:03;;;;;;;11.85;4.40;;;;;;;-144.57;100.00;62443.72;4993181;28;20140;-63
2023/03/14 09:19:29;;;;;;;6.28;3.95;;;;;;;-144.57;100.00;62443.72;4993921;28;20424;-61
2023/03/14 09:21:54;;;;;;;6.97;4.22;;;;;;;-144.57;100.00;62443.72;5009122;28;20391;-63
2023/03/14 09:24:20;;;;;;;8.55;4.38;;;;;;;-144.57;100.00;62443.72;5009143;28;20401;-61
2023/03/14 09:26:46;;;;;;;8.02;4.60;;;;;;;-144.57;100.00;62443.72;5005502;28;20121;-62
2023/03/14 09:29:11;;;;;;;6.80;4.40;;;;;;;-144.57;100.00;62443.72;4994995;28;20056;-63
2023/03/14 09:31:37;;;;;;;7.88;4.53;;;;;;;-144.57;100.00;62443.72;5009832;28;20045;-64
2023/03/14 09:34:03;;;;;;;10.73;4.28;;;;;;;-144.57;100.00;62443.72;4977288;28;20054;-66
2023/03/14 09:36:28;;;;;;;11.98;4.72;;;;;;;-144.57;100.00;62443.72;4992111;28;20037;-62
2023/03/14 09:38:54;;;;;;;11.63;4.60;;;;;;;-144.57;100.00;62443.72;5006543;28;20136;-62
2023/03/14 09:41:30;;;;;;;8.93;4.07;;;;;;;-144.57;100.00;62443.72;5004767;28;20069;-63
2023/03/14 09:44:09;;;;;;;7.70;4.60;;;;;;;-144.57;100.00;62443.72;4995443;28;20088;-63
2023/03/14 09:46:36;;;;;;;9.23;4.10;;;;;;;-144.57;100.00;62443.72;5003939;28;20429;-62
2023/03/14 09:49:03;;;;;;;10.27;4.60;;;;;;;-144.57;100.00;62443.72;4989947;28;20498;-62
2023/03/14 09:51:29;;;;;;;8.00;4.43;;;;;;;-144.57;100.00;62443.72;4989733;28;20103;-61
2023/03/14 09:53:54;;;;;;;7.30;4.18;;;;;;;-144.57;100.00;62443.72;5004827;28;20148;-61
2023/03/14 09:56:24;;;;;;;7.25;4.15;;;;;;;-144.57;100.00;62443.72;5005948;28;20157;-62
2023/03/14 09:58:56;;;;;;;7.38;4.55;;;;;;;-144.57;100.00;62443.72;5007330;28;20492;-61
2023/03/14 10:01:28;;;;;;;8.00;4.30;;;;;;;-144.57;100.00;62443.72;4988572;28;20096;-62
2023/03/14 10:03:57;;;;;;;6.95;4.25;;;;;;;-144.57;100.00;62443.72;5006773;28;20041;-63
2023/03/14 10:06:31;;;;;;;5.85;4.53;;;;;;;-144.57;100.00;62443.72;4993600;28;20495;-62
2023/03/14 10:08:57;;;;;;;7.43;4.18;;;;;;;-144.57;100.00;62443.72;4986709;28;20041;-62
2023/03/14 10:11:24;;;;;;;6.45;4.43;;;;;;;-144.57;100.00;62443.72;5007977;28;20488;-60
2023/03/14 10:13:51;;;;;;;6.68;4.45;;;;;;;-144.57;100.00;62443.72;5008468;28;20041;-60
2023/03/14 10:16:16;;;;;;;6.88;4.80;;;;;;;-144.57;100.00;62443.72;5008863;28;20266;-63
2023/03/14 10:18:46;;;;;;;6.38;4.68;;;;;;;-144.57;100.00;62443.72;4994413;28;20053;-61
2023/03/14 10:21:26;;;;;;;8.05;4.63;;;;;;;-144.57;100.00;62443.72;5010246;28;20034;-61
2023/03/14 10:23:52;;;;;;;6.60;4.47;;;;;;;-144.57;100.00;62443.72;5008342;28;20041;-62
2023/03/14 10:26:24;;;;;;;9.20;4.95;;;;;;;-144.57;100.00;62443.72;5008311;28;20137;-62
2023/03/14 10:29:01;;;;;;;7.18;4.57;;;;;;;-144.57;100.00;62443.72;5009843;28;20093;-62
2023/03/14 10:31:27;;;;;;;8.00;4.55;;;;;;;-144.57;100.00;62443.72;4987688;28;20042;-62
2023/03/14 10:34:02;;;;;;;11.07;5.38;;;;;;;-144.57;100.00;62443.72;5005435;28;20480;-61
2023/03/14 10:36:30;;;;;;;5.97;4.47;;;;;;;-144.57;100.00;62443.72;5008919;28;20077;-62
2023/03/14 10:39:23;;;;;;;12.98;5.20;;;;;;;-144.57;100.00;62443.72;5006418;28;20130;-61
2023/03/14 10:41:52;;;;;;;10.57;5.40;;;;;;;-144.57;100.00;62443.72;4984912;28;20046;-61
2023/03/14 10:44:21;;;;;;;8.98;5.30;;;;;;;-144.57;100.00;62443.72;4991382;28;20068;-61
2023/03/14 10:46:56;;;;;;;9.77;5.03;;;;;;;-144.57;100.00;62443.72;4988906;28;20053;-61
2023/03/14 10:49:33;;;;;;;10.02;4.60;;;;;;;-144.57;100.00;62443.72;4989023;28;20083;-62
2023/03/14 10:52:13;;;;;;;12.07;5.45;;;;;;;-144.57;100.00;62443.72;4990100;28;20419;-61
2023/03/14 10:54:39;;;;;;;6.18;5.03;;;;;;;-144.57;100.00;62443.72;5005531;28;20053;-60
2023/03/14 10:57:08;;;;;;;9.15;4.55;;;;;;;-144.57;100.00;62443.72;5006888;28;20054;-61
2023/03/14 10:59:39;;;;;;;10.77;5.40;;;;;;;-144.57;100.00;62443.72;5006032;28;20060;-62
2023/03/14 11:02:23;;;;;;;7.07;4.50;;;;;;;-144.57;100.00;62443.72;4990619;28;20511;-60
2023/03/14 11:05:11;;;;;;;11.07;5.22;;;;;;;-144.57;100.00;62443.72;5000623;28;20551;-63
2023/03/14 11:07:42;;;;;;;6.40;4.45;;;;;;;-144.57;100.00;62443.72;5007732;28;20450;-62
2023/03/14 11:10:20;;;;;;;8.45;4.78;;;;;;;-144.57;100.00;62443.72;4990065;28;20041;-62
2023/03/14 11:13:06;;;;;;;8.25;5.03;;;;;;;-144.57;100.00;62443.72;5003049;28;20068;-62
2023/03/14 11:15:35;;;;;;;7.75;4.60;;;;;;;-144.57;100.00;62443.72;4970557;28;20046;-61
2023/03/14 11:18:26;;;;;;;7.35;5.07;;;;;;;-144.57;100.00;62443.72;5002852;28;20050;-61
2023/03/14 11:21:00;;;;;;;7.00;4.95;;;;;;;-144.57;100.00;62443.72;4964029;28;20025;-61
2023/03/14 11:24:05;;;;;;;7.75;4.55;;;;;;;-144.57;100.00;62443.72;4999472;28;20041;-63